Time;durP1;ratioP1;P1;durP2;ratioP2;P2;SDS_P1;SDS_P2;PMS_P1;PMS_P2;Temp;Humidity;BMP_temperature;BMP_pressure;BME280_temperature;BME280_humidity;BME280_pressure;Samples;Min_cycle;Max_cycle;Signal;HPM_P1;HPM_P2
2023/04/24 00:01:00;;;;;;;;;;;11.10;99.90;;;;;;4838696;29;19924;-64
2023/04/24 00:03:27;;;;;;;;;;;11.10;99.90;;;;;;4832955;29;19990;-64
2023/04/24 00:05:53;;;;;;;;;;;11.10;99.90;;;;;;4839807;29;20993;-63
2023/04/24 00:08:19;;;;;;;;;;;11.20;99.90;;;;;;4837210;29;19944;-64
2023/04/24 00:10:45;;;;;;;;;;;11.10;99.90;;;;;;4841727;29;19920;-63
2023/04/24 00:13:10;;;;;;;;;;;11.00;99.90;;;;;;4833124;29;20852;-62
2023/04/24 00:15:36;;;;;;;;;;;10.90;99.90;;;;;;4840406;29;20759;-62
2023/04/24 00:18:02;;;;;;;;;;;10.80;99.90;;;;;;4844575;29;19912;-63
2023/04/24 00:20:29;;;;;;;;;;;10.70;99.90;;;;;;4846194;29;19918;-63
2023/04/24 00:22:55;;;;;;;;;;;10.70;99.90;;;;;;4847634;29;19931;-63
2023/04/24 00:25:20;;;;;;;;;;;10.70;99.90;;;;;;4846042;29;19915;-62
2023/04/24 00:27:46;;;;;;;;;;;10.70;99.90;;;;;;4843261;29;19919;-64
2023/04/24 00:30:11;;;;;;;;;;;10.70;99.90;;;;;;4837471;29;20388;-64
2023/04/24 00:32:37;;;;;;;;;;;10.80;99.90;;;;;;4823336;29;19912;-63
2023/04/24 00:35:03;;;;;;;;;;;10.80;99.90;;;;;;4840973;29;19920;-63
2023/04/24 00:37:28;;;;;;;;;;;10.90;99.90;;;;;;4827286;29;20289;-64
2023/04/24 00:39:54;;;;;;;;;;;11.00;99.90;;;;;;4843645;29;19967;-64
2023/04/24 00:42:20;;;;;;;;;;;11.00;99.90;;;;;;4837695;29;19935;-64
2023/04/24 00:44:45;;;;;;;;;;;11.10;99.90;;;;;;4841620;29;19920;-64
2023/04/24 00:47:12;;;;;;;;;;;11.10;99.90;;;;;;4828257;29;19923;-64
2023/04/24 00:49:38;;;;;;;;;;;11.10;99.90;;;;;;4834704;29;19961;-64
2023/04/24 00:52:07;;;;;;;;;;;11.10;99.90;;;;;;4836834;29;21436;-64
2023/04/24 00:54:33;;;;;;;;;;;11.10;99.90;;;;;;4841022;29;20234;-64
2023/04/24 00:56:58;;;;;;;;;;;11.10;99.90;;;;;;4841504;29;19916;-64
2023/04/24 00:59:24;;;;;;;;;;;11.20;99.90;;;;;;4839835;29;19916;-64
2023/04/24 01:01:50;;;;;;;;;;;11.20;99.90;;;;;;4844251;29;20408;-64
2023/04/24 01:04:17;;;;;;;;;;;11.20;99.90;;;;;;4838471;29;19919;-64
2023/04/24 01:06:44;;;;;;;;;;;11.30;99.90;;;;;;4840088;29;19923;-64
2023/04/24 01:09:10;;;;;;;;;;;11.40;99.90;;;;;;4843043;29;19955;-64
2023/04/24 01:11:36;;;;;;;;;;;11.40;99.90;;;;;;4835057;29;19916;-62
2023/04/24 01:14:02;;;;;;;;;;;11.40;99.90;;;;;;4837316;29;19915;-63
2023/04/24 01:16:27;;;;;;;;;;;11.50;99.90;;;;;;4845418;29;19930;-63
2023/04/24 01:18:53;;;;;;;;;;;11.50;99.90;;;;;;4845807;29;19930;-63
2023/04/24 01:21:20;;;;;;;;;;;11.40;99.90;;;;;;4837371;29;20397;-62
2023/04/24 01:23:46;;;;;;;;;;;11.20;99.90;;;;;;4843279;29;19912;-62
2023/04/24 01:26:13;;;;;;;;;;;11.20;99.90;;;;;;4826306;29;19928;-62
2023/04/24 01:28:39;;;;;;;;;;;11.20;99.90;;;;;;4845706;29;19916;-63
2023/04/24 01:31:05;;;;;;;;;;;11.30;99.90;;;;;;4835970;29;20283;-63
2023/04/24 01:33:30;;;;;;;;;;;11.30;99.90;;;;;;4842904;29;19982;-63
2023/04/24 01:35:56;;;;;;;;;;;11.40;99.90;;;;;;4832809;29;19972;-62
2023/04/24 01:38:21;;;;;;;;;;;11.40;99.90;;;;;;4840451;29;19916;-63
2023/04/24 01:40:47;;;;;;;;;;;11.40;99.90;;;;;;4839480;29;20822;-62
2023/04/24 01:43:13;;;;;;;;;;;11.40;99.90;;;;;;4834093;29;19935;-62
2023/04/24 01:45:38;;;;;;;;;;;11.50;99.90;;;;;;4840509;29;19913;-62
2023/04/24 01:48:04;;;;;;;;;;;11.50;99.90;;;;;;4839611;29;19916;-62
2023/04/24 01:50:30;;;;;;;;;;;11.50;99.90;;;;;;4841274;29;19924;-64
2023/04/24 01:52:56;;;;;;;;;;;11.50;99.90;;;;;;4836562;29;19920;-64
2023/04/24 01:55:21;;;;;;;;;;;11.50;99.90;;;;;;4837431;29;19917;-64
2023/04/24 01:57:47;;;;;;;;;;;11.50;99.90;;;;;;4839130;29;19919;-64
2023/04/24 02:00:12;;;;;;;;;;;11.40;99.90;;;;;;4837668;29;20011;-64
2023/04/24 02:02:41;;;;;;;;;;;11.40;99.90;;;;;;4833895;29;19971;-64
2023/04/24 02:05:07;;;;;;;;;;;11.40;99.90;;;;;;4840323;29;19920;-62
2023/04/24 02:07:33;;;;;;;;;;;11.40;99.90;;;;;;4840423;29;19912;-62
2023/04/24 02:09:58;;;;;;;;;;;11.40;99.90;;;;;;4841799;29;19919;-63
2023/04/24 02:12:24;;;;;;;;;;;11.50;99.90;;;;;;4833365;29;19920;-62
2023/04/24 02:14:50;;;;;;;;;;;11.50;99.90;;;;;;4842453;29;19951;-62
2023/04/24 02:17:16;;;;;;;;;;;11.70;99.90;;;;;;4833585;29;19916;-63
2023/04/24 02:19:41;;;;;;;;;;;11.70;99.90;;;;;;4840064;29;19916;-63
2023/04/24 02:22:07;;;;;;;;;;;11.80;99.90;;;;;;4839829;29;19971;-62
2023/04/24 02:24:32;;;;;;;;;;;11.70;99.90;;;;;;4840760;29;20403;-62
2023/04/24 02:26:58;;;;;;;;;;;11.60;99.90;;;;;;4839488;29;20789;-62
2023/04/24 02:29:23;;;;;;;;;;;11.60;99.90;;;;;;4834490;29;20398;-62
2023/04/24 02:31:49;;;;;;;;;;;11.60;99.90;;;;;;4838172;29;20654;-62
2023/04/24 02:34:14;;;;;;;;;;;11.70;99.90;;;;;;4841098;29;20402;-62
2023/04/24 02:36:40;;;;;;;;;;;11.70;99.90;;;;;;4834097;29;20579;-62
2023/04/24 02:39:06;;;;;;;;;;;11.70;99.90;;;;;;4833303;29;19916;-62
2023/04/24 02:41:32;;;;;;;;;;;11.80;99.90;;;;;;4839700;29;19929;-62
2023/04/24 02:43:58;;;;;;;;;;;11.90;99.90;;;;;;4837637;29;19922;-63
2023/04/24 02:46:23;;;;;;;;;;;11.80;99.90;;;;;;4838393;29;19920;-62
2023/04/24 02:48:49;;;;;;;;;;;11.80;99.90;;;;;;4841118;29;20295;-62
2023/04/24 02:51:14;;;;;;;;;;;11.80;99.90;;;;;;4836527;29;19934;-62
2023/04/24 02:53:40;;;;;;;;;;;11.80;99.90;;;;;;4840031;29;20452;-62
2023/04/24 02:56:05;;;;;;;;;;;11.70;99.90;;;;;;4834937;29;19919;-63
2023/04/24 02:58:31;;;;;;;;;;;11.70;99.90;;;;;;4825677;29;19916;-62
2023/04/24 03:00:57;;;;;;;;;;;11.60;99.90;;;;;;4839079;29;19912;-62
2023/04/24 03:03:23;;;;;;;;;;;11.60;99.90;;;;;;4838736;29;20018;-62
2023/04/24 03:05:48;;;;;;;;;;;11.70;99.90;;;;;;4840892;29;19963;-65
2023/04/24 03:08:14;;;;;;;;;;;11.70;99.90;;;;;;4841097;29;20540;-65
2023/04/24 03:10:40;;;;;;;;;;;11.80;99.90;;;;;;4845918;29;19928;-65
2023/04/24 03:13:05;;;;;;;;;;;11.90;99.90;;;;;;4838329;29;19920;-65
2023/04/24 03:15:31;;;;;;;;;;;11.90;99.90;;;;;;4841894;29;20338;-65
2023/04/24 03:17:56;;;;;;;;;;;11.90;99.90;;;;;;4843677;29;20358;-65
2023/04/24 03:20:22;;;;;;;;;;;11.90;99.90;;;;;;4841530;29;19920;-65
2023/04/24 03:22:47;;;;;;;;;;;11.80;99.90;;;;;;4842759;29;19924;-65
2023/04/24 03:25:13;;;;;;;;;;;11.70;99.90;;;;;;4841260;29;20380;-65
2023/04/24 03:27:39;;;;;;;;;;;11.80;99.90;;;;;;4845118;29;19968;-65
2023/04/24 03:30:05;;;;;;;;;;;11.90;99.90;;;;;;4842024;29;19916;-65
2023/04/24 03:32:32;;;;;;;;;;;12.00;99.90;;;;;;4838506;29;19916;-65
2023/04/24 03:34:57;;;;;;;;;;;12.00;99.90;;;;;;4838623;29;19920;-65
2023/04/24 03:37:23;;;;;;;;;;;12.10;99.90;;;;;;4842589;29;19916;-64
2023/04/24 03:39:48;;;;;;;;;;;12.10;99.90;;;;;;4838447;29;19916;-65
2023/04/24 03:42:14;;;;;;;;;;;12.10;99.90;;;;;;4836677;29;19928;-64
2023/04/24 03:44:39;;;;;;;;;;;12.20;99.90;;;;;;4833873;29;20012;-64
2023/04/24 03:47:05;;;;;;;;;;;12.10;99.90;;;;;;4840608;29;19916;-64
2023/04/24 03:49:30;;;;;;;;;;;12.20;99.90;;;;;;4841082;29;20556;-64
2023/04/24 03:51:56;;;;;;;;;;;12.20;99.90;;;;;;4837712;29;20019;-65
2023/04/24 03:54:21;;;;;;;;;;;12.20;99.90;;;;;;4843737;29;20031;-65
2023/04/24 03:56:47;;;;;;;;;;;12.20;99.90;;;;;;4841841;29;19928;-65
2023/04/24 03:59:13;;;;;;;;;;;12.20;99.90;;;;;;4839048;29;20497;-65
2023/04/24 04:01:39;;;;;;;;;;;12.20;99.90;;;;;;4835089;29;20294;-65
2023/04/24 04:04:05;;;;;;;;;;;12.20;99.90;;;;;;4837560;29;19924;-65
2023/04/24 04:06:31;;;;;;;;;;;12.20;99.90;;;;;;4838287;29;19916;-65
2023/04/24 04:08:56;;;;;;;;;;;12.30;99.90;;;;;;4843557;29;19916;-65
2023/04/24 04:11:22;;;;;;;;;;;12.30;99.90;;;;;;4829078;29;19923;-65
2023/04/24 04:13:47;;;;;;;;;;;12.30;99.90;;;;;;4841793;29;20399;-64
2023/04/24 04:16:13;;;;;;;;;;;12.30;99.90;;;;;;4835159;29;19951;-65
2023/04/24 04:18:39;;;;;;;;;;;12.30;99.90;;;;;;4845507;29;19981;-64
2023/04/24 04:21:05;;;;;;;;;;;12.30;99.90;;;;;;4837373;29;19982;-63
2023/04/24 04:23:31;;;;;;;;;;;12.30;99.90;;;;;;4842331;29;19927;-64
2023/04/24 04:25:57;;;;;;;;;;;12.40;99.90;;;;;;4842152;29;19920;-64
2023/04/24 04:28:24;;;;;;;;;;;12.40;99.90;;;;;;4839127;29;20581;-64
2023/04/24 04:30:53;;;;;;;;;;;12.40;99.90;;;;;;4836770;29;19923;-65
2023/04/24 04:33:21;;;;;;;;;;;12.40;99.90;;;;;;4834600;29;19920;-64
2023/04/24 04:35:48;;;;;;;;;;;12.40;99.90;;;;;;4842269;29;19912;-64
2023/04/24 04:38:14;;;;;;;;;;;12.40;99.90;;;;;;4838594;29;20671;-65
2023/04/24 04:40:40;;;;;;;;;;;12.40;99.90;;;;;;4834605;29;19943;-64
2023/04/24 04:43:06;;;;;;;;;;;12.40;99.90;;;;;;4837183;29;20694;-65
2023/04/24 04:45:32;;;;;;;;;;;12.40;99.90;;;;;;4837899;29;19971;-64
2023/04/24 04:48:00;;;;;;;;;;;12.40;99.90;;;;;;4837233;29;19921;-64
2023/04/24 04:50:26;;;;;;;;;;;12.50;99.90;;;;;;4834455;29;19924;-64
2023/04/24 04:52:52;;;;;;;;;;;12.50;99.90;;;;;;4830847;29;19920;-64
2023/04/24 04:55:18;;;;;;;;;;;12.50;99.90;;;;;;4838736;29;20037;-64
2023/04/24 04:57:43;;;;;;;;;;;12.50;99.90;;;;;;4836036;29;19959;-64
2023/04/24 05:00:10;;;;;;;;;;;12.50;99.90;;;;;;4839901;29;20696;-64
2023/04/24 05:02:36;;;;;;;;;;;12.50;99.90;;;;;;4841535;29;20686;-64
2023/04/24 05:05:01;;;;;;;;;;;12.50;99.90;;;;;;4831217;29;20043;-63
2023/04/24 05:07:27;;;;;;;;;;;12.60;99.90;;;;;;4836833;29;19916;-64
2023/04/24 05:09:52;;;;;;;;;;;12.70;99.90;;;;;;4840187;29;19932;-64
2023/04/24 05:12:18;;;;;;;;;;;12.70;99.90;;;;;;4833826;29;20565;-63
2023/04/24 05:14:43;;;;;;;;;;;12.70;99.90;;;;;;4842431;29;19935;-63
2023/04/24 05:17:09;;;;;;;;;;;12.60;99.90;;;;;;4838406;29;19982;-64
2023/04/24 05:19:37;;;;;;;;;;;12.70;99.90;;;;;;4837130;29;19920;-63
2023/04/24 05:22:04;;;;;;;;;;;12.70;99.90;;;;;;4836272;29;20044;-63
2023/04/24 05:24:30;;;;;;;;;;;12.80;99.90;;;;;;4834148;29;19916;-63
2023/04/24 05:26:56;;;;;;;;;;;12.80;99.90;;;;;;4834968;29;19923;-63
2023/04/24 05:29:22;;;;;;;;;;;12.80;99.90;;;;;;4833048;29;19970;-64
2023/04/24 05:31:47;;;;;;;;;;;12.90;99.90;;;;;;4837692;29;20010;-63
2023/04/24 05:34:14;;;;;;;;;;;12.90;99.90;;;;;;4833692;29;19919;-64
2023/04/24 05:36:39;;;;;;;;;;;13.00;99.90;;;;;;4838314;29;19940;-64
2023/04/24 05:39:05;;;;;;;;;;;13.10;99.90;;;;;;4837557;29;19920;-64
2023/04/24 05:41:30;;;;;;;;;;;13.10;99.90;;;;;;4832706;29;19934;-64
2023/04/24 05:43:56;;;;;;;;;;;13.20;99.90;;;;;;4828793;29;19921;-64
2023/04/24 05:46:21;;;;;;;;;;;13.20;99.90;;;;;;4835622;29;19927;-64
2023/04/24 05:48:47;;;;;;;;;;;13.20;99.90;;;;;;4848984;29;19916;-64
2023/04/24 05:51:12;;;;;;;;;;;13.20;99.90;;;;;;4839890;29;19927;-64
2023/04/24 05:53:38;;;;;;;;;;;13.20;99.90;;;;;;4837415;29;19951;-64
2023/04/24 05:56:03;;;;;;;;;;;13.20;99.90;;;;;;4851253;29;20362;-65
2023/04/24 05:58:29;;;;;;;;;;;13.20;99.90;;;;;;4840927;29;21286;-64
2023/04/24 06:00:55;;;;;;;;;;;13.30;99.90;;;;;;4838374;29;19916;-64
2023/04/24 06:03:21;;;;;;;;;;;13.40;99.90;;;;;;4840954;29;20911;-65
2023/04/24 06:05:46;;;;;;;;;;;13.50;99.90;;;;;;4836689;29;19920;-64
2023/04/24 06:08:12;;;;;;;;;;;13.50;99.90;;;;;;4845290;29;20405;-64
2023/04/24 06:10:37;;;;;;;;;;;13.60;99.90;;;;;;4843560;29;20526;-65
2023/04/24 06:13:03;;;;;;;;;;;13.60;99.90;;;;;;4838857;29;19947;-64
2023/04/24 06:15:30;;;;;;;;;;;13.70;99.90;;;;;;4843208;29;19935;-64
2023/04/24 06:17:56;;;;;;;;;;;13.80;99.90;;;;;;4840079;29;19915;-64
2023/04/24 06:20:21;;;;;;;;;;;13.80;99.90;;;;;;4840484;29;19923;-64
2023/04/24 06:22:47;;;;;;;;;;;13.80;99.90;;;;;;4841070;29;19924;-64
2023/04/24 06:25:12;;;;;;;;;;;13.80;99.90;;;;;;4843372;29;20618;-64
2023/04/24 06:27:38;;;;;;;;;;;13.80;99.90;;;;;;4843517;29;19920;-64
2023/04/24 06:30:04;;;;;;;;;;;13.80;99.90;;;;;;4843812;29;20450;-64
2023/04/24 06:32:30;;;;;;;;;;;13.70;99.90;;;;;;4837641;29;19927;-64
2023/04/24 06:34:56;;;;;;;;;;;13.70;99.90;;;;;;4829894;29;20510;-64
2023/04/24 06:37:21;;;;;;;;;;;13.70;99.90;;;;;;4841101;29;19923;-64
2023/04/24 06:39:47;;;;;;;;;;;13.70;99.90;;;;;;4841949;29;19908;-64
2023/04/24 06:42:13;;;;;;;;;;;13.70;99.90;;;;;;4846017;29;19928;-64
2023/04/24 06:44:40;;;;;;;;;;;13.70;99.90;;;;;;4841811;29;19935;-65
2023/04/24 06:47:07;;;;;;;;;;;13.60;99.90;;;;;;4841243;29;19916;-65
2023/04/24 06:49:33;;;;;;;;;;;13.60;99.90;;;;;;4841916;29;19913;-65
2023/04/24 06:51:58;;;;;;;;;;;13.60;99.90;;;;;;4844022;29;20105;-65
2023/04/24 06:54:23;;;;;;;;;;;13.80;99.90;;;;;;4841115;29;19928;-65
2023/04/24 06:56:51;;;;;;;;;;;13.80;99.90;;;;;;4843414;29;20721;-64
2023/04/24 06:59:16;;;;;;;;;;;14.00;99.90;;;;;;4845659;29;19919;-64
2023/04/24 07:01:42;;;;;;;;;;;14.20;99.90;;;;;;4838203;29;19935;-65
2023/04/24 07:04:07;;;;;;;;;;;14.40;99.90;;;;;;4845140;29;20528;-65
2023/04/24 07:06:33;;;;;;;;;;;14.60;99.90;;;;;;4844430;29;19919;-65
2023/04/24 07:08:59;;;;;;;;;;;14.60;99.90;;;;;;4837394;29;19927;-65
2023/04/24 07:11:29;;;;;;;;;;;14.50;99.90;;;;;;4840061;29;19928;-65
2023/04/24 07:13:55;;;;;;;;;;;14.50;99.90;;;;;;4840561;29;19918;-65
2023/04/24 07:16:20;;;;;;;;;;;14.60;99.90;;;;;;4837640;29;20085;-65
2023/04/24 07:18:46;;;;;;;;;;;14.70;99.90;;;;;;4846716;29;20429;-65
2023/04/24 07:21:11;;;;;;;;;;;14.80;99.90;;;;;;4839506;29;19927;-65
2023/04/24 07:23:37;;;;;;;;;;;14.80;99.90;;;;;;4844351;29;19920;-65
2023/04/24 07:26:02;;;;;;;;;;;14.90;99.90;;;;;;4845165;29;20275;-65
2023/04/24 07:28:30;;;;;;;;;;;14.90;99.90;;;;;;4842399;29;19921;-65
2023/04/24 07:30:56;;;;;;;;;;;14.90;99.90;;;;;;4835708;29;19942;-64
2023/04/24 07:33:22;;;;;;;;;;;15.00;99.90;;;;;;4847867;29;20389;-65
2023/04/24 07:35:48;;;;;;;;;;;15.00;99.90;;;;;;4841422;29;19920;-64
2023/04/24 07:38:13;;;;;;;;;;;15.00;99.90;;;;;;4845830;29;20329;-64
2023/04/24 07:40:39;;;;;;;;;;;15.10;99.90;;;;;;4836548;29;19916;-64
2023/04/24 07:43:05;;;;;;;;;;;15.10;99.90;;;;;;4847334;29;20374;-64
2023/04/24 07:45:31;;;;;;;;;;;15.20;99.90;;;;;;4844105;29;19920;-64
2023/04/24 07:47:56;;;;;;;;;;;15.40;99.90;;;;;;4849846;29;19920;-64
2023/04/24 07:50:22;;;;;;;;;;;15.50;99.90;;;;;;4841123;29;19930;-64
2023/04/24 07:52:47;;;;;;;;;;;15.70;99.90;;;;;;4837509;29;19920;-65
2023/04/24 07:55:13;;;;;;;;;;;15.90;99.90;;;;;;4846198;29;19911;-66
2023/04/24 07:57:39;;;;;;;;;;;16.00;99.90;;;;;;4848865;29;19936;-63
2023/04/24 08:00:05;;;;;;;;;;;16.10;99.90;;;;;;4850353;29;20023;-63
2023/04/24 08:02:31;;;;;;;;;;;16.30;99.90;;;;;;4845103;29;19920;-65
2023/04/24 08:04:56;;;;;;;;;;;16.30;99.90;;;;;;4846576;29;19927;-63
2023/04/24 08:07:23;;;;;;;;;;;16.40;99.90;;;;;;4842359;29;20003;-61
2023/04/24 08:09:48;;;;;;;;;;;16.30;99.90;;;;;;4836462;29;20301;-61
2023/04/24 08:12:14;;;;;;;;;;;16.20;99.90;;;;;;4840765;29;19923;-62
2023/04/24 08:14:39;;;;;;;;;;;16.10;99.90;;;;;;4832366;29;20027;-61
2023/04/24 08:17:05;;;;;;;;;;;15.90;99.90;;;;;;4833524;29;20875;-61
2023/04/24 08:19:31;;;;;;;;;;;15.70;99.90;;;;;;4841323;29;19934;-63
2023/04/24 08:21:56;;;;;;;;;;;15.70;99.90;;;;;;4842935;29;19924;-61
2023/04/24 08:24:22;;;;;;;;;;;15.70;99.90;;;;;;4836571;29;19912;-61
2023/04/24 08:26:50;;;;;;;;;;;15.70;99.90;;;;;;4838021;29;20587;-61
2023/04/24 08:29:15;;;;;;;;;;;15.60;99.90;;;;;;4827429;29;20973;-60
2023/04/24 08:31:41;;;;;;;;;;;15.50;99.90;;;;;;4821876;29;19941;-60
2023/04/24 08:34:07;;;;;;;;;;;15.40;99.90;;;;;;4842413;29;19985;-63
2023/04/24 08:36:32;;;;;;;;;;;15.30;99.90;;;;;;4833705;29;20408;-61
2023/04/24 08:38:58;;;;;;;;;;;15.40;99.90;;;;;;4841690;29;19924;-61
2023/04/24 08:41:25;;;;;;;;;;;15.50;99.90;;;;;;4835633;29;19917;-61
2023/04/24 08:43:51;;;;;;;;;;;15.60;99.90;;;;;;4843874;29;19948;-62
2023/04/24 08:46:18;;;;;;;;;;;15.80;99.90;;;;;;4841371;29;20077;-62
2023/04/24 08:48:43;;;;;;;;;;;16.00;99.90;;;;;;4837150;29;20010;-61
2023/04/24 08:51:09;;;;;;;;;;;16.10;99.90;;;;;;4841233;29;19928;-62
2023/04/24 08:53:35;;;;;;;;;;;16.00;99.90;;;;;;4837846;29;20403;-61
2023/04/24 08:56:01;;;;;;;;;;;15.90;99.90;;;;;;4841735;29;20002;-61
2023/04/24 08:58:27;;;;;;;;;;;16.00;99.90;;;;;;4838772;29;20122;-61
2023/04/24 09:00:56;;;;;;;;;;;16.00;99.90;;;;;;4837433;29;19916;-62
2023/04/24 09:03:22;;;;;;;;;;;16.10;99.90;;;;;;4836829;29;19939;-63
2023/04/24 09:05:49;;;;;;;;;;;16.10;99.90;;;;;;4821241;29;19989;-62
2023/04/24 09:08:15;;;;;;;;;;;16.20;99.90;;;;;;4827026;29;19935;-62
2023/04/24 09:10:41;;;;;;;;;;;16.20;99.90;;;;;;4841810;29;20035;-62
2023/04/24 09:13:09;;;;;;;;;;;16.10;99.90;;;;;;4845542;29;20139;-62
2023/04/24 09:15:34;;;;;;;;;;;16.10;99.90;;;;;;4837972;29;19984;-62
2023/04/24 09:18:00;;;;;;;;;;;16.00;99.90;;;;;;4836235;29;20008;-62
2023/04/24 09:20:26;;;;;;;;;;;16.00;99.90;;;;;;4839002;29;19977;-62
2023/04/24 09:22:54;;;;;;;;;;;16.00;99.90;;;;;;4839200;29;20372;-63
2023/04/24 09:43:41;;;;;;;;;;;16.30;99.90;;;;;;6040647;23;1973216;-62
2023/04/24 09:46:09;;;;;;;;;;;16.40;99.90;;;;;;6121375;23;20251;-65
2023/04/24 09:48:38;;;;;;;;;;;16.40;99.90;;;;;;6121292;23;19908;-65
2023/04/24 09:51:06;;;;;;;;;;;16.50;99.90;;;;;;6122773;23;19909;-64
2023/04/24 09:53:32;;;;;;;;;;;16.60;99.90;;;;;;6120639;23;20410;-64
2023/04/24 09:56:20;;;;;;;;;;;16.80;99.90;;;;;;6121398;23;19993;-65
2023/04/24 09:58:46;;;;;;;;;;;16.80;99.90;;;;;;6118726;23;20042;-65
2023/04/24 10:01:12;;;;;;;;;;;16.70;99.90;;;;;;6115533;23;19908;-64
2023/04/24 10:03:38;;;;;;;;;;;16.60;99.90;;;;;;6122970;23;20152;-64
2023/04/24 10:06:08;;;;;;;;;;;16.60;99.90;;;;;;6093762;23;20004;-65
2023/04/24 10:08:35;;;;;;;;;;;16.60;99.90;;;;;;6093809;23;19905;-65
2023/04/24 10:11:01;;;;;;;;;;;16.60;99.90;;;;;;6094432;23;19913;-65
2023/04/24 10:13:27;;;;;;;;;;;16.70;99.90;;;;;;6093221;23;20363;-65
2023/04/24 10:15:53;;;;;;;;;;;16.70;99.90;;;;;;6093249;23;20447;-65
2023/04/24 10:18:20;;;;;;;;;;;16.80;99.90;;;;;;6094333;23;19988;-64
2023/04/24 10:20:46;;;;;;;;;;;16.70;99.90;;;;;;6095614;23;19984;-65
2023/04/24 10:23:12;;;;;;;;;;;16.70;99.90;;;;;;6092714;23;19937;-64
2023/04/24 10:25:37;;;;;;;;;;;16.70;99.90;;;;;;6092373;23;20314;-63
2023/04/24 10:28:03;;;;;;;;;;;16.70;99.90;;;;;;6091730;23;19955;-63
2023/04/24 10:30:30;;;;;;;;;;;16.80;99.90;;;;;;6092853;23;19971;-63
2023/04/24 10:32:55;;;;;;;;;;;16.80;99.90;;;;;;6094000;23;19931;-63
2023/04/24 10:35:24;;;;;;;;;;;16.80;99.90;;;;;;6091383;23;20322;-63
2023/04/24 10:37:50;;;;;;;;;;;16.80;99.90;;;;;;6087413;23;19905;-63
2023/04/24 10:40:25;;;;;;;;;;;16.80;99.90;;;;;;6085264;23;20339;-63
2023/04/24 10:42:52;;;;;;;;;;;16.80;99.90;;;;;;6087945;23;19957;-64
2023/04/24 10:45:21;;;;;;;;;;;16.80;99.90;;;;;;6086041;23;19949;-64
2023/04/24 10:47:53;;;;;;;;;;;16.80;99.90;;;;;;6086168;23;19948;-65
2023/04/24 10:50:19;;;;;;;;;;;16.90;99.90;;;;;;6085681;23;19915;-65
2023/04/24 10:52:45;;;;;;;;;;;17.00;99.90;;;;;;6086813;23;19987;-64
2023/04/24 10:55:12;;;;;;;;;;;16.90;99.90;;;;;;6084088;23;19906;-64
2023/04/24 10:57:38;;;;;;;;;;;16.80;99.90;;;;;;6085237;23;19905;-65
2023/04/24 11:00:14;;;;;;;;;;;16.80;99.90;;;;;;6084251;23;19992;-63
2023/04/24 11:02:43;;;;;;;;;;;16.70;99.90;;;;;;6078254;23;20490;-63
2023/04/24 11:05:10;;;;;;;;;;;16.70;99.90;;;;;;6083671;23;19917;-63
2023/04/24 11:07:59;;;;;;;;;;;16.70;99.90;;;;;;6087558;23;20447;-64
2023/04/24 11:10:25;;;;;;;;;;;16.60;99.90;;;;;;6083492;23;20358;-63
2023/04/24 11:12:51;;;;;;;;;;;16.60;99.90;;;;;;6085969;23;19952;-63
2023/04/24 11:15:19;;;;;;;;;;;16.70;99.90;;;;;;6085205;23;19905;-63
2023/04/24 11:17:45;;;;;;;;;;;16.70;99.90;;;;;;6082715;23;20012;-63
2023/04/24 11:20:11;;;;;;;;;;;16.60;99.90;;;;;;6085885;23;19925;-63
2023/04/24 11:22:39;;;;;;;;;;;16.60;99.90;;;;;;6080193;23;20467;-63
2023/04/24 11:25:06;;;;;;;;;;;16.60;99.90;;;;;;6085224;23;19917;-63
2023/04/24 11:27:39;;;;;;;;;;;16.70;99.90;;;;;;6085124;23;19946;-62
2023/04/24 11:30:06;;;;;;;;;;;16.70;99.90;;;;;;6082212;23;20056;-62
2023/04/24 11:32:41;;;;;;;;;;;16.70;99.90;;;;;;6081178;23;19909;-62
2023/04/24 11:35:14;;;;;;;;;;;16.70;99.90;;;;;;6081282;23;20420;-62
2023/04/24 11:37:42;;;;;;;;;;;16.70;99.90;;;;;;6075625;23;19913;-62
2023/04/24 11:40:08;;;;;;;;;;;16.60;99.90;;;;;;6079540;23;19909;-62
2023/04/24 11:42:34;;;;;;;;;;;16.60;99.90;;;;;;6079622;23;20259;-63
2023/04/24 11:45:01;;;;;;;;;;;16.70;99.90;;;;;;6079584;23;19950;-62
2023/04/24 11:47:27;;;;;;;;;;;16.80;99.90;;;;;;6072023;23;20280;-62
2023/04/24 11:49:53;;;;;;;;;;;16.80;99.90;;;;;;6071017;23;19964;-62
2023/04/24 11:52:19;;;;;;;;;;;16.80;99.90;;;;;;6080781;23;19909;-62
2023/04/24 11:54:51;;;;;;;;;;;16.90;99.90;;;;;;6080569;23;19909;-62
2023/04/24 11:57:19;;;;;;;;;;;16.90;99.90;;;;;;6081124;23;19905;-62
2023/04/24 11:59:44;;;;;;;;;;;16.90;99.90;;;;;;6080319;23;19936;-62
2023/04/24 12:02:19;;;;;;;;;;;16.90;99.90;;;;;;6083873;23;20616;-62
2023/04/24 12:04:45;;;;;;;;;;;16.90;99.90;;;;;;6085186;23;19914;-62
2023/04/24 12:07:10;;;;;;;;;;;16.80;99.90;;;;;;6084656;23;20004;-62
2023/04/24 12:10:09;;;;;;;;;;;16.80;99.90;;;;;;6083215;23;19905;-63
2023/04/24 12:12:34;;;;;;;;;;;16.80;99.90;;;;;;6020367;23;19980;-63
2023/04/24 12:15:00;;;;;;;;;;;16.70;99.90;;;;;;6083385;23;20387;-63
2023/04/24 12:17:26;;;;;;;;;;;16.70;99.90;;;;;;6084614;23;19906;-63
2023/04/24 12:19:53;;;;;;;;;;;16.70;99.90;;;;;;6081771;23;20276;-62
2023/04/24 12:22:18;;;;;;;;;;;16.70;99.90;;;;;;6084735;23;19906;-63
2023/04/24 12:25:05;;;;;;;;;;;16.60;99.90;;;;;;6081228;23;20468;-62
2023/04/24 12:27:34;;;;;;;;;;;16.60;99.90;;;;;;6083293;23;20008;-62
2023/04/24 12:30:00;;;;;;;;;;;16.60;99.90;;;;;;6086129;23;19963;-63
2023/04/24 12:32:26;;;;;;;;;;;16.60;99.90;;;;;;6082895;23;19909;-63
2023/04/24 12:34:54;;;;;;;;;;;16.60;99.90;;;;;;6084893;23;19906;-63
2023/04/24 12:37:20;;;;;;;;;;;16.60;99.90;;;;;;6085171;23;19921;-63
2023/04/24 12:39:59;;;;;;;;;;;16.60;99.90;;;;;;6083689;23;19989;-62
2023/04/24 12:42:28;;;;;;;;;;;16.60;99.90;;;;;;6083676;23;19996;-63
2023/04/24 12:44:59;;;;;;;;;;;16.60;99.90;;;;;;6086078;23;19924;-62
2023/04/24 12:47:24;;;;;;;;;;;16.60;99.90;;;;;;6084437;23;19909;-62
2023/04/24 12:49:52;;;;;;;;;;;16.70;99.90;;;;;;6083107;23;19913;-62
2023/04/24 12:52:21;;;;;;;;;;;16.70;99.90;;;;;;6084705;23;19956;-62
2023/04/24 12:54:47;;;;;;;;;;;16.80;99.90;;;;;;6086056;23;19939;-62
2023/04/24 12:57:12;;;;;;;;;;;16.80;99.90;;;;;;6084152;23;20247;-62
2023/04/24 12:59:39;;;;;;;;;;;16.90;99.90;;;;;;6083048;23;19905;-61
2023/04/24 13:02:04;;;;;;;;;;;16.90;99.90;;;;;;6083785;23;19944;-62
2023/04/24 13:04:30;;;;;;;;;;;16.90;99.90;;;;;;6083878;23;19950;-62
2023/04/24 13:06:55;;;;;;;;;;;16.90;99.90;;;;;;6084021;23;19912;-63
2023/04/24 13:09:21;;;;;;;;;;;16.90;99.90;;;;;;6083771;23;19944;-62
2023/04/24 13:11:47;;;;;;;;;;;16.80;99.90;;;;;;6083269;23;19928;-62
2023/04/24 13:14:12;;;;;;;;;;;16.80;99.90;;;;;;6086142;23;19956;-62
2023/04/24 13:16:38;;;;;;;;;;;16.70;99.90;;;;;;6081184;23;20000;-64
2023/04/24 13:19:03;;;;;;;;;;;16.70;99.90;;;;;;6083455;23;19925;-63
2023/04/24 13:21:30;;;;;;;;;;;16.70;99.90;;;;;;6085253;23;19917;-63
2023/04/24 13:23:55;;;;;;;;;;;16.70;99.90;;;;;;6082586;23;19917;-64
2023/04/24 13:26:21;;;;;;;;;;;16.70;99.90;;;;;;6087052;23;19924;-63
2023/04/24 13:28:47;;;;;;;;;;;16.70;99.90;;;;;;6085381;23;20385;-64
2023/04/24 13:31:13;;;;;;;;;;;16.70;99.90;;;;;;6085851;23;20353;-63
2023/04/24 13:33:39;;;;;;;;;;;16.60;99.90;;;;;;6087430;23;20328;-64
2023/04/24 13:36:05;;;;;;;;;;;16.60;99.90;;;;;;6086666;23;19992;-63
2023/04/24 13:38:31;;;;;;;;;;;16.50;99.90;;;;;;6082072;23;20406;-63
2023/04/24 13:40:56;;;;;;;;;;;16.50;99.90;;;;;;6088008;23;19910;-63
2023/04/24 13:43:22;;;;;;;;;;;16.50;99.90;;;;;;6085222;23;19948;-61
2023/04/24 13:45:48;;;;;;;;;;;16.40;99.90;;;;;;6086488;23;20599;-62
2023/04/24 13:48:15;;;;;;;;;;;16.30;99.90;;;;;;6085976;23;19905;-61
2023/04/24 13:50:41;;;;;;;;;;;16.10;99.90;;;;;;6086200;23;19992;-62
2023/04/24 13:53:06;;;;;;;;;;;16.00;99.90;;;;;;6085299;23;19939;-62
2023/04/24 13:55:32;;;;;;;;;;;15.90;99.90;;;;;;6085401;23;19905;-63
2023/04/24 13:57:58;;;;;;;;;;;15.80;99.90;;;;;;6085759;23;19972;-62
2023/04/24 14:00:23;;;;;;;;;;;15.90;99.90;;;;;;6084985;23;20216;-63
2023/04/24 14:02:49;;;;;;;;;;;15.90;99.90;;;;;;6085339;23;19905;-62
2023/04/24 14:05:15;;;;;;;;;;;15.90;99.90;;;;;;6083524;23;19917;-63
2023/04/24 14:07:40;;;;;;;;;;;16.00;99.90;;;;;;6085486;23;19957;-63
2023/04/24 14:10:06;;;;;;;;;;;15.90;99.90;;;;;;6086491;23;19933;-62
2023/04/24 14:12:32;;;;;;;;;;;15.90;99.90;;;;;;6088131;23;19936;-62
2023/04/24 14:14:58;;;;;;;;;;;15.90;99.90;;;;;;6080273;23;20310;-63
2023/04/24 14:17:23;;;;;;;;;;;15.90;99.90;;;;;;6087649;23;19909;-63
2023/04/24 14:19:49;;;;;;;;;;;15.80;99.90;;;;;;6085252;23;19906;-64
2023/04/24 14:22:15;;;;;;;;;;;15.90;99.90;;;;;;6083691;23;19937;-62
2023/04/24 14:24:40;;;;;;;;;;;15.90;99.90;;;;;;6084440;23;20341;-63
2023/04/24 14:27:06;;;;;;;;;;;15.90;99.90;;;;;;6086463;23;20438;-64
2023/04/24 14:29:32;;;;;;;;;;;15.80;99.90;;;;;;6086434;23;19964;-64